Time;durP1;ratioP1;P1;durP2;ratioP2;P2;SDS_P1;SDS_P2;PMS_P1;PMS_P2;Temp;Humidity;BMP_temperature;BMP_pressure;BME280_temperature;BME280_humidity;BME280_pressure;Samples;Min_cycle;Max_cycle;Signal;HPM_P1;HPM_P2
2023/06/04 00:02:21;;;;;;;1.52;1.00;;;20.60;71.90;;;;;;5071172;28;20055;-40
2023/06/04 00:04:48;;;;;;;1.13;1.00;;;;;;;;;;5071551;28;20052;-37
2023/06/04 00:07:14;;;;;;;1.88;1.23;;;20.70;71.70;;;;;;5061057;28;20119;-41
2023/06/04 00:09:43;;;;;;;3.40;1.20;;;20.00;72.10;;;;;;5067182;28;20044;-41
2023/06/04 00:12:10;;;;;;;3.35;1.30;;;;;;;;;;5070921;28;20045;-30
2023/06/04 00:14:37;;;;;;;1.80;1.38;;;20.40;71.60;;;;;;5071032;28;20132;-41
2023/06/04 00:17:04;;;;;;;1.60;1.10;;;;;;;;;;5073551;28;20123;-38
2023/06/04 00:19:33;;;;;;;1.23;0.98;;;20.50;70.70;;;;;;5074983;28;20386;-41
2023/06/04 00:22:00;;;;;;;1.30;1.10;;;;;;;;;;5074704;28;20049;-37
2023/06/04 00:24:27;;;;;;;3.05;1.10;;;19.40;70.90;;;;;;5074368;28;20063;-41
2023/06/04 00:26:55;;;;;;;1.35;1.08;;;20.80;71.80;;;;;;5073200;28;20048;-41
2023/06/04 00:29:22;;;;;;;1.52;1.13;;;19.90;71.40;;;;;;5074577;28;20457;-41
2023/06/04 00:31:49;;;;;;;3.40;1.17;;;;;;;;;;5074419;28;20131;-39
2023/06/04 00:34:17;;;;;;;1.13;0.90;;;20.20;72.30;;;;;;5074350;28;20136;-41
2023/06/04 00:36:44;;;;;;;1.33;1.00;;;20.70;71.80;;;;;;5073373;28;20048;-41
2023/06/04 00:39:11;;;;;;;3.17;1.10;;;;;;;;;;5074406;28;20056;-35
2023/06/04 00:41:38;;;;;;;1.25;1.00;;;20.20;72.30;;;;;;5074387;28;20128;-41
2023/06/04 00:44:06;;;;;;;1.50;1.10;;;20.30;53.90;;;;;;5073979;28;20132;-38
2023/06/04 00:46:32;;;;;;;1.55;1.20;;;20.60;71.90;;;;;;5071037;28;20072;-41
2023/06/04 00:48:59;;;;;;;2.20;1.10;;;19.70;59.20;;;;;;5054386;28;20128;-38
2023/06/04 00:51:26;;;;;;;1.10;1.00;;;20.20;71.60;;;;;;5054054;28;20462;-41
2023/06/04 00:53:53;;;;;;;2.17;1.13;;;20.40;71.60;;;;;;5053753;28;20053;-40
2023/06/04 00:56:19;;;;;;;1.88;1.42;;;20.10;57.70;;;;;;5054902;28;20127;-39
2023/06/04 00:58:47;;;;;;;2.03;1.30;;;21.30;72.20;;;;;;5074360;28;20071;-41
2023/06/04 01:01:32;;;;;;;2.67;1.25;;;20.60;61.60;;;;;;5074096;28;20054;-38
2023/06/04 01:03:59;;;;;;;1.90;1.20;;;20.10;71.70;;;;;;5073686;28;20068;-41
2023/06/04 01:06:29;;;;;;;2.17;1.40;;;20.90;72.40;;;;;;5071509;28;20139;-41
2023/06/04 01:08:56;;;;;;;1.95;1.20;;;;;;;;;;5063363;28;20132;-39
2023/06/04 01:11:34;;;;;;;2.00;1.10;;;19.60;71.40;;;;;;5058934;28;20055;-41
2023/06/04 01:14:01;;;;;;;2.13;1.10;;;20.60;72.30;;;;;;5054850;28;20139;-41
2023/06/04 01:16:29;;;;;;;1.50;1.25;;;20.20;71.80;;;;;;5053575;28;20152;-40
2023/06/04 01:18:58;;;;;;;1.20;1.10;;;21.00;54.50;;;;;;5053593;28;20056;-37
2023/06/04 01:21:28;;;;;;;1.73;1.00;;;20.10;63.30;;;;;;5053848;28;20473;-37
2023/06/04 01:23:59;;;;;;;1.83;1.10;;;21.00;72.50;;;;;;5062077;28;20055;-38
2023/06/04 01:26:26;;;;;;;1.20;1.08;;;;;;;;;;5073740;28;20114;-38
2023/06/04 01:28:53;;;;;;;2.13;1.20;;;;;;;;;;5066055;28;20051;-39
2023/06/04 01:31:22;;;;;;;1.80;1.10;;;;;;;;;;5073374;28;20059;-37
2023/06/04 01:33:51;;;;;;;2.40;1.10;;;20.00;72.00;;;;;;5072343;28;20045;-39
2023/06/04 01:36:18;;;;;;;1.83;1.00;;;20.20;72.50;;;;;;5072787;28;20131;-36
2023/06/04 01:38:45;;;;;;;1.85;1.30;;;19.10;65.60;;;;;;5073567;28;20135;-38
2023/06/04 01:41:11;;;;;;;1.48;1.10;;;20.30;72.20;;;;;;5073311;28;20166;-36
2023/06/04 01:43:38;;;;;;;1.67;1.20;;;20.70;72.10;;;;;;5072220;28;20689;-37
2023/06/04 01:46:05;;;;;;;1.70;1.20;;;20.50;61.10;;;;;;5073113;28;20050;-38
2023/06/04 01:48:32;;;;;;;3.00;1.20;;;20.50;72.70;;;;;;5073057;28;20135;-41
2023/06/04 01:51:01;;;;;;;2.78;1.40;;;20.20;66.90;;;;;;5073152;28;20048;-37
2023/06/04 01:53:28;;;;;;;1.40;0.95;;;19.70;71.50;;;;;;5067836;28;20315;-37
2023/06/04 01:55:57;;;;;;;2.22;1.30;;;;;;;;;;5052933;28;20414;-37
2023/06/04 01:58:26;;;;;;;1.38;1.15;;;20.40;59.50;;;;;;5052869;28;20099;-36
2023/06/04 02:00:54;;;;;;;2.38;1.58;;;;;;;;;;5052901;28;20048;-37
2023/06/04 02:03:21;;;;;;;1.80;1.17;;;20.20;71.80;;;;;;5069763;28;20044;-37
2023/06/04 02:05:48;;;;;;;1.98;1.30;;;20.00;55.30;;;;;;5072621;28;20131;-37
2023/06/04 02:08:20;;;;;;;1.70;1.10;;;19.60;71.90;;;;;;5067863;28;20044;-40
2023/06/04 02:10:47;;;;;;;2.83;1.50;;;20.00;72.10;;;;;;5052269;28;20513;-39
2023/06/04 02:13:14;;;;;;;1.83;1.27;;;20.40;65.50;;;;;;5051362;28;20045;-38
2023/06/04 02:15:41;;;;;;;1.70;1.20;;;20.60;72.10;;;;;;5052286;28;20063;-37
2023/06/04 02:18:16;;;;;;;2.47;1.23;;;19.90;55.60;;;;;;5052235;28;20045;-35
2023/06/04 02:20:43;;;;;;;1.65;1.13;;;20.00;71.80;;;;;;5052123;28;20094;-36
2023/06/04 02:23:10;;;;;;;3.25;1.25;;;;;;;;;;5055631;28;20044;-38
2023/06/04 02:25:38;;;;;;;1.70;1.08;;;20.20;71.90;;;;;;5061305;28;20052;-40
2023/06/04 02:28:05;;;;;;;3.03;1.27;;;21.20;72.40;;;;;;5063185;28;20139;-37
2023/06/04 02:30:32;;;;;;;2.28;1.20;;;;;;;;;;5059951;28;20057;-39
2023/06/04 02:33:00;;;;;;;2.75;1.10;;;20.70;72.30;;;;;;5057482;28;20591;-38
2023/06/04 02:35:27;;;;;;;2.05;1.10;;;19.80;71.70;;;;;;5061712;28;20052;-39
2023/06/04 02:37:56;;;;;;;2.45;1.30;;;21.10;72.50;;;;;;5063873;28;20083;-40
2023/06/04 02:40:23;;;;;;;2.53;1.25;;;20.30;63.90;;;;;;5071922;28;20437;-39
2023/06/04 02:42:51;;;;;;;2.00;1.23;;;20.00;71.80;;;;;;5059863;28;20128;-38
2023/06/04 02:45:17;;;;;;;1.63;1.10;;;20.00;72.10;;;;;;5051832;28;20409;-37
2023/06/04 02:47:44;;;;;;;1.95;1.10;;;20.60;73.00;;;;;;5052145;28;20132;-39
2023/06/04 02:50:12;;;;;;;2.17;1.20;;;20.20;62.20;;;;;;5052132;28;20053;-38
2023/06/04 02:52:39;;;;;;;2.33;1.25;;;20.30;72.80;;;;;;5061874;28;20054;-37
2023/06/04 02:55:07;;;;;;;1.92;1.20;;;20.20;72.40;;;;;;5071996;28;20060;-41
2023/06/04 02:57:34;;;;;;;2.20;1.30;;;;;;;;;;5071692;28;20421;-40
2023/06/04 03:00:09;;;;;;;2.20;1.20;;;20.10;54.10;;;;;;5071759;28;20089;-38
2023/06/04 03:02:37;;;;;;;2.30;1.30;;;;;;;;;;5061412;28;20055;-41
2023/06/04 03:05:05;;;;;;;2.17;1.20;;;19.70;71.00;;;;;;5051783;28;20048;-38
2023/06/04 03:07:32;;;;;;;1.77;1.30;;;19.20;67.10;;;;;;5051375;28;20571;-38
2023/06/04 03:09:58;;;;;;;2.90;1.40;;;20.40;72.10;;;;;;5069947;28;20497;-37
2023/06/04 03:12:25;;;;;;;1.48;1.10;;;;;;;;;;5070714;28;20044;-39
2023/06/04 03:14:52;;;;;;;2.47;1.30;;;20.10;72.30;;;;;;5071752;28;20131;-36
2023/06/04 03:17:20;;;;;;;3.05;1.42;;;20.30;72.80;;;;;;5071482;28;20555;-40
2023/06/04 03:19:47;;;;;;;3.03;1.50;;;;;;;;;;5071534;28;20131;-37
2023/06/04 03:22:14;;;;;;;1.52;1.20;;;19.10;69.00;;;;;;5070996;28;20044;-36
2023/06/04 03:24:41;;;;;;;2.47;1.40;;;19.20;71.50;;;;;;5071466;28;20127;-39
2023/06/04 03:27:08;;;;;;;2.80;1.48;;;20.40;57.50;;;;;;5071629;28;20128;-35
2023/06/04 03:29:35;;;;;;;2.40;1.30;;;19.00;71.20;;;;;;5071540;28;20454;-39
2023/06/04 03:32:02;;;;;;;1.85;1.15;;;;;;;;;;5066577;28;20051;-36
2023/06/04 03:34:31;;;;;;;2.22;1.20;;;19.80;72.60;;;;;;5051213;28;20116;-36
2023/06/04 03:36:58;;;;;;;2.28;1.30;;;19.40;71.90;;;;;;5060439;28;20082;-39
2023/06/04 03:39:25;;;;;;;3.33;1.85;;;20.00;60.80;;;;;;5071609;28;20054;-40
2023/06/04 03:41:51;;;;;;;2.08;1.30;;;20.30;72.00;;;;;;5070718;28;20124;-36
2023/06/04 03:44:18;;;;;;;1.95;1.10;;;;;;;;;;5071259;28;20055;-35
2023/06/04 03:46:45;;;;;;;2.50;1.35;;;19.90;71.20;;;;;;5070931;28;20052;-37
2023/06/04 03:49:13;;;;;;;2.15;1.30;;;20.00;72.00;;;;;;5071568;28;20048;-37
2023/06/04 03:51:41;;;;;;;2.42;1.20;;;19.80;58.30;;;;;;5072976;28;20052;-39
2023/06/04 03:54:08;;;;;;;3.83;1.45;;;19.50;72.60;;;;;;5054863;28;20148;-39
2023/06/04 03:56:35;;;;;;;1.50;1.13;;;;;;;;;;5055118;28;20127;-36
2023/06/04 03:59:02;;;;;;;2.50;1.30;;;18.70;58.00;;;;;;5055143;28;20055;-36
2023/06/04 04:01:29;;;;;;;1.98;1.30;;;;;;;;;;5054835;28;20433;-37
2023/06/04 04:03:56;;;;;;;2.17;1.30;;;20.20;72.20;;;;;;5074092;28;20120;-36
2023/06/04 04:06:23;;;;;;;2.05;1.30;;;;;;;;;;5075150;28;20055;-37
2023/06/04 04:08:51;;;;;;;1.60;1.40;;;19.90;54.10;;;;;;5074753;28;20151;-39
2023/06/04 04:11:18;;;;;;;1.95;1.17;;;21.00;72.40;;;;;;5074889;28;20055;-41
2023/06/04 04:13:45;;;;;;;2.15;1.20;;;19.70;72.00;;;;;;5073862;28;20048;-39
2023/06/04 04:16:12;;;;;;;2.05;1.20;;;19.90;72.00;;;;;;5074477;28;20083;-35
2023/06/04 04:18:39;;;;;;;2.15;1.25;;;18.90;72.00;;;;;;5074740;28;20131;-41
2023/06/04 04:21:06;;;;;;;3.05;1.50;;;;;;;;;;5074537;28;20526;-36
2023/06/04 04:23:32;;;;;;;1.67;1.20;;;20.40;72.30;;;;;;5073651;28;20054;-38
2023/06/04 04:26:01;;;;;;;1.40;1.13;;;19.90;73.00;;;;;;5074532;28;20045;-40
2023/06/04 04:28:29;;;;;;;2.22;1.35;;;;;;;;;;5072904;28;20084;-36
2023/06/04 04:30:57;;;;;;;2.03;1.20;;;19.70;71.60;;;;;;5074106;28;20051;-38
2023/06/04 04:33:24;;;;;;;2.15;1.23;;;19.90;73.00;;;;;;5074492;28;20056;-39
2023/06/04 04:35:52;;;;;;;4.13;1.40;;;;;;;;;;5073917;28;20053;-40
2023/06/04 04:38:19;;;;;;;1.83;1.20;;;20.60;71.20;;;;;;5073454;28;20048;-36
2023/06/04 04:40:47;;;;;;;2.65;1.60;;;20.10;73.10;;;;;;5074378;28;20080;-41
2023/06/04 04:43:15;;;;;;;1.30;1.05;;;19.90;73.00;;;;;;5073953;28;20040;-41
2023/06/04 04:45:43;;;;;;;1.85;1.35;;;;;;;;;;5074325;28;20071;-36
2023/06/04 04:48:10;;;;;;;2.05;1.20;;;;;;;;;;5074245;28;20135;-37
2023/06/04 04:50:37;;;;;;;1.75;1.20;;;19.80;65.40;;;;;;5054055;28;20140;-36
2023/06/04 04:53:03;;;;;;;1.42;1.10;;;20.60;72.30;;;;;;5053505;28;20405;-38
2023/06/04 04:55:30;;;;;;;2.40;1.30;;;18.80;72.10;;;;;;5053988;28;20140;-37
2023/06/04 04:57:57;;;;;;;2.63;1.40;;;20.80;59.40;;;;;;5053880;28;20550;-35
2023/06/04 05:00:25;;;;;;;1.92;1.40;;;18.90;63.20;;;;;;5053849;28;20131;-38
2023/06/04 05:02:51;;;;;;;2.03;1.20;;;19.40;72.80;;;;;;5053239;28;20051;-38
2023/06/04 05:05:18;;;;;;;1.75;1.20;;;19.50;72.00;;;;;;5053861;28;20130;-37
2023/06/04 05:07:45;;;;;;;1.67;1.15;;;;;;;;;;5053680;28;20131;-37
2023/06/04 05:10:12;;;;;;;2.10;1.50;;;19.90;72.60;;;;;;5053365;28;20127;-41
2023/06/04 05:12:40;;;;;;;2.45;1.30;;;;;;;;;;5063645;28;20083;-36
2023/06/04 05:15:08;;;;;;;2.10;1.38;;;19.40;72.20;;;;;;5073472;28;20128;-38
2023/06/04 05:17:36;;;;;;;1.55;1.20;;;19.20;57.50;;;;;;5073709;28;20405;-40
2023/06/04 05:20:04;;;;;;;1.50;1.20;;;19.20;72.10;;;;;;5072966;28;20132;-41
2023/06/04 05:22:32;;;;;;;2.13;1.20;;;20.10;72.80;;;;;;5073341;28;20516;-39
2023/06/04 05:25:00;;;;;;;3.22;1.20;;;20.90;72.90;;;;;;5073434;28;20044;-39
2023/06/04 05:27:27;;;;;;;1.73;1.20;;;20.20;72.80;;;;;;5073375;28;20049;-38
2023/06/04 05:29:55;;;;;;;1.75;1.30;;;;;;;;;;5072824;28;20135;-40
2023/06/04 05:32:23;;;;;;;1.80;1.20;;;;;;;;;;5073097;28;20056;-38
2023/06/04 05:34:51;;;;;;;1.63;1.08;;;20.00;57.70;;;;;;5073473;28;20048;-39
2023/06/04 05:37:18;;;;;;;1.80;1.40;;;20.10;69.10;;;;;;5072690;28;20408;-37
2023/06/04 05:39:45;;;;;;;1.58;1.17;;;19.50;72.20;;;;;;5072559;28;20052;-40
2023/06/04 05:42:13;;;;;;;2.45;1.40;;;;;;;;;;5073108;28;20052;-37
2023/06/04 05:44:40;;;;;;;2.40;1.35;;;;;;;;;;5073343;28;20048;-34
2023/06/04 05:47:07;;;;;;;2.80;1.23;;;20.20;72.80;;;;;;5070553;28;20044;-33
2023/06/04 05:49:35;;;;;;;1.17;0.90;;;19.20;72.00;;;;;;5072247;28;20123;-32
2023/06/04 05:52:03;;;;;;;2.30;1.30;;;20.30;56.50;;;;;;5073003;28;20127;-36
2023/06/04 05:54:30;;;;;;;2.35;1.33;;;19.80;73.20;;;;;;5072907;28;20059;-31
2023/06/04 05:56:57;;;;;;;2.10;1.20;;;;;;;;;;5073022;28;20049;-32
2023/06/04 05:59:24;;;;;;;2.45;1.35;;;;;;;;;;5064440;28;20045;-35
2023/06/04 06:01:51;;;;;;;2.80;1.40;;;20.00;72.40;;;;;;5052657;28;20052;-34
2023/06/04 06:04:18;;;;;;;2.78;1.33;;;20.30;61.40;;;;;;5052251;28;20040;-32
2023/06/04 06:06:48;;;;;;;2.33;1.20;;;;;;;;;;5055027;28;20131;-32
2023/06/04 06:09:16;;;;;;;2.88;1.20;;;19.80;54.50;;;;;;5059390;28;20044;-36
2023/06/04 06:11:43;;;;;;;1.95;1.20;;;;;;;;;;5070754;28;20048;-36
2023/06/04 06:14:10;;;;;;;1.83;1.10;;;;;;;;;;5065464;28;20041;-35
2023/06/04 06:16:37;;;;;;;3.70;1.30;;;;;;;;;;5052473;28;20049;-35
2023/06/04 06:19:04;;;;;;;1.60;1.15;;;18.70;71.90;;;;;;5052780;28;20055;-32
2023/06/04 06:21:31;;;;;;;2.80;1.38;;;19.80;54.50;;;;;;5052754;28;20048;-34
2023/06/04 06:23:58;;;;;;;1.10;0.95;;;;;;;;;;5052466;28;20048;-35
2023/06/04 06:26:26;;;;;;;2.50;1.30;;;19.80;54.60;;;;;;5052455;28;20110;-35
2023/06/04 06:28:53;;;;;;;1.75;1.25;;;;;;;;;;5054727;28;20132;-32
2023/06/04 06:31:20;;;;;;;2.72;1.20;;;19.60;72.20;;;;;;5062844;28;20485;-33
2023/06/04 06:33:47;;;;;;;1.42;1.10;;;20.30;59.60;;;;;;5057022;28;20402;-31
2023/06/04 06:36:14;;;;;;;3.03;1.30;;;19.70;57.00;;;;;;5055295;28;20124;-34
2023/06/04 06:38:40;;;;;;;1.55;1.10;;;19.50;72.20;;;;;;5071175;28;20493;-32
2023/06/04 06:41:07;;;;;;;2.67;1.38;;;20.00;72.50;;;;;;5072341;28;20055;-32
2023/06/04 06:43:36;;;;;;;2.05;1.27;;;19.90;56.10;;;;;;5072043;28;20133;-35
2023/06/04 06:46:02;;;;;;;4.72;1.50;;;20.00;68.90;;;;;;5071894;28;20135;-33
2023/06/04 06:48:29;;;;;;;2.80;1.30;;;;;;;;;;5072203;28;20052;-35
2023/06/04 06:50:56;;;;;;;2.10;1.30;;;;;;;;;;5052032;28;20052;-34
2023/06/04 06:53:23;;;;;;;1.88;1.30;;;19.60;73.10;;;;;;5051978;28;20132;-32
2023/06/04 06:55:50;;;;;;;1.65;1.25;;;20.20;72.60;;;;;;5051621;28;20638;-32
2023/06/04 06:58:17;;;;;;;2.13;1.20;;;19.50;73.10;;;;;;5051971;28;20127;-32
2023/06/04 07:00:45;;;;;;;2.70;1.25;;;19.80;54.60;;;;;;5069762;28;20059;-35
2023/06/04 07:03:12;;;;;;;2.40;1.30;;;;;;;;;;5060343;28;20548;-35
2023/06/04 07:05:39;;;;;;;2.08;1.20;;;19.80;73.30;;;;;;5066032;28;20463;-33
2023/06/04 07:08:06;;;;;;;2.35;1.30;;;19.60;72.40;;;;;;5071750;28;20048;-34
2023/06/04 07:10:33;;;;;;;2.67;1.30;;;;;;;;;;5070838;28;20529;-38
2023/06/04 07:13:00;;;;;;;1.80;1.10;;;19.50;70.20;;;;;;5071527;28;20131;-32
2023/06/04 07:15:27;;;;;;;2.78;1.42;;;;;;;;;;5071630;28;20136;-34
2023/06/04 07:17:55;;;;;;;1.85;1.25;;;19.90;72.40;;;;;;5052544;28;20049;-32
2023/06/04 07:20:22;;;;;;;3.42;1.50;;;19.00;72.40;;;;;;5059587;28;20041;-33
2023/06/04 07:22:48;;;;;;;1.92;1.20;;;19.70;72.40;;;;;;5051390;28;20056;-31
2023/06/04 07:25:15;;;;;;;2.35;1.30;;;19.80;54.60;;;;;;5053579;28;20049;-35
2023/06/04 07:27:42;;;;;;;2.33;1.20;;;19.60;72.30;;;;;;5055729;28;20536;-32
2023/06/04 07:30:10;;;;;;;2.42;1.23;;;18.60;71.80;;;;;;5067842;28;20532;-33
2023/06/04 07:32:37;;;;;;;2.03;1.20;;;19.60;72.20;;;;;;5075590;28;20101;-32
2023/06/04 07:35:06;;;;;;;2.30;1.30;;;19.60;65.50;;;;;;5075303;28;20048;-32
2023/06/04 07:37:32;;;;;;;2.17;1.20;;;20.40;62.30;;;;;;5068880;28;20056;-32
2023/06/04 07:39:59;;;;;;;3.60;1.58;;;19.00;71.90;;;;;;5073547;28;20139;-32
2023/06/04 07:42:26;;;;;;;1.83;1.25;;;;;;;;;;5074549;28;20048;-34
2023/06/04 07:44:53;;;;;;;1.85;1.02;;;20.80;72.80;;;;;;5075304;28;20044;-31
2023/06/04 07:47:20;;;;;;;2.95;1.42;;;;;;;;;;5075236;28;20063;-34
2023/06/04 07:49:47;;;;;;;2.25;1.30;;;;;;;;;;5073538;28;20640;-33
2023/06/04 07:52:15;;;;;;;3.17;1.52;;;19.90;54.40;;;;;;5075006;28;20525;-37
2023/06/04 07:54:42;;;;;;;2.25;1.13;;;;;;;;;;5075219;28;20055;-38
2023/06/04 07:57:10;;;;;;;2.15;1.27;;;19.20;71.30;;;;;;5075433;28;20127;-31
2023/06/04 07:59:36;;;;;;;2.67;1.40;;;20.00;65.20;;;;;;5067778;28;20084;-31
2023/06/04 08:02:04;;;;;;;1.55;1.20;;;;;;;;;;5070360;28;20425;-39
2023/06/04 08:04:31;;;;;;;2.13;1.30;;;20.30;72.50;;;;;;5074953;28;20045;-31
2023/06/04 08:06:58;;;;;;;1.75;1.30;;;19.50;72.50;;;;;;5066213;28;20120;-31
2023/06/04 08:09:26;;;;;;;1.75;1.02;;;20.00;54.20;;;;;;5067767;28;20052;-34
2023/06/04 08:11:53;;;;;;;1.63;1.15;;;19.00;64.70;;;;;;5057069;28;20132;-32
2023/06/04 08:14:22;;;;;;;1.90;1.17;;;;;;;;;;5054270;28;20049;-31
2023/06/04 08:16:49;;;;;;;2.28;1.10;;;;;;;;;;5054998;28;20102;-35
2023/06/04 08:19:16;;;;;;;2.05;1.00;;;20.50;71.80;;;;;;5057529;28;20056;-31
2023/06/04 08:21:44;;;;;;;2.58;1.33;;;20.30;66.60;;;;;;5067494;28;20079;-31
2023/06/04 08:24:11;;;;;;;2.00;1.23;;;20.40;58.50;;;;;;5073835;28;20567;-33
2023/06/04 08:26:39;;;;;;;1.85;1.15;;;20.20;53.80;;;;;;5073191;28;20059;-31
2023/06/04 08:29:06;;;;;;;2.10;1.10;;;20.30;72.40;;;;;;5073260;28;20175;-31
2023/06/04 08:31:33;;;;;;;1.77;1.13;;;;;;;;;;5058241;28;20059;-34
2023/06/04 08:33:59;;;;;;;1.63;1.20;;;20.30;65.60;;;;;;5052823;28;20135;-32
2023/06/04 08:36:27;;;;;;;2.85;1.25;;;;;;;;;;5057343;28;20052;-32
2023/06/04 08:38:54;;;;;;;2.50;1.27;;;;;;;;;;5073503;28;20121;-36
2023/06/04 08:41:26;;;;;;;2.42;1.17;;;20.70;72.40;;;;;;5074503;28;20049;-32
2023/06/04 08:43:55;;;;;;;2.05;1.02;;;20.20;53.50;;;;;;5074579;28;20428;-31
2023/06/04 08:46:22;;;;;;;1.35;1.02;;;;;;;;;;5074322;28;20090;-36
2023/06/04 08:48:48;;;;;;;1.60;1.30;;;20.50;72.10;;;;;;5063036;28;20045;-31
2023/06/04 08:51:15;;;;;;;2.33;1.15;;;20.50;72.10;;;;;;5054512;28;20131;-31
2023/06/04 08:53:42;;;;;;;1.58;1.10;;;20.40;55.40;;;;;;5054064;28;20102;-33
2023/06/04 08:56:10;;;;;;;2.05;1.10;;;;;;;;;;5056307;28;20055;-31
2023/06/04 08:58:37;;;;;;;2.85;1.67;;;20.40;71.30;;;;;;5070237;28;20048;-31
2023/06/04 09:01:05;;;;;;;2.83;1.30;;;21.60;71.50;;;;;;5070914;28;20074;-31
2023/06/04 09:03:32;;;;;;;2.55;1.27;;;20.30;71.60;;;;;;5073658;28;20147;-31
2023/06/04 09:05:59;;;;;;;1.88;1.20;;;20.30;66.20;;;;;;5061104;28;20041;-31
2023/06/04 09:08:26;;;;;;;1.33;1.20;;;;;;;;;;5058867;28;20114;-35
2023/06/04 09:10:54;;;;;;;1.40;1.20;;;20.70;71.70;;;;;;5074038;28;20055;-32
2023/06/04 09:13:23;;;;;;;1.58;1.10;;;21.40;71.40;;;;;;5073643;28;20568;-31
2023/06/04 09:15:59;;;;;;;2.05;1.20;;;20.80;71.60;;;;;;5073628;28;20044;-31
2023/06/04 09:18:27;;;;;;;2.05;1.10;;;20.90;70.80;;;;;;5073973;28;20162;-31
2023/06/04 09:21:02;;;;;;;1.80;1.10;;;20.40;70.70;;;;;;5073919;28;20135;-31
2023/06/04 09:23:30;;;;;;;1.85;1.15;;;;;;;;;;5073464;28;20056;-34
2023/06/04 09:25:57;;;;;;;1.63;1.10;;;;;;;;;;5073489;28;20476;-36
2023/06/04 09:28:24;;;;;;;1.80;1.20;;;21.00;54.00;;;;;;5073602;28;20135;-31
2023/06/04 09:30:53;;;;;;;1.38;1.00;;;21.00;71.00;;;;;;5073350;28;20413;-31
2023/06/04 09:33:20;;;;;;;1.83;1.10;;;20.50;70.10;;;;;;5073167;28;20052;-31
2023/06/04 09:35:55;;;;;;;1.52;1.00;;;20.90;52.70;;;;;;5073303;28;20048;-36
2023/06/04 09:38:22;;;;;;;2.10;1.08;;;;;;;;;;5053357;28;20063;-31
2023/06/04 09:40:50;;;;;;;2.13;1.27;;;;;;;;;;5053271;28;20052;-34
2023/06/04 09:43:22;;;;;;;2.15;1.25;;;21.10;70.80;;;;;;5052846;28;20059;-31
2023/06/04 09:45:49;;;;;;;2.35;1.38;;;20.80;70.30;;;;;;5053421;28;20049;-31
2023/06/04 09:48:20;;;;;;;1.65;1.13;;;20.10;53.80;;;;;;5056065;28;20140;-33
2023/06/04 09:50:47;;;;;;;2.55;1.27;;;20.70;71.00;;;;;;5072974;28;20052;-31
2023/06/04 09:53:15;;;;;;;1.75;1.20;;;20.10;52.10;;;;;;5072562;28;20084;-33
2023/06/04 09:55:42;;;;;;;2.55;1.42;;;21.50;65.40;;;;;;5072565;28;20094;-32
2023/06/04 09:58:09;;;;;;;2.38;1.33;;;20.60;70.90;;;;;;5070280;28;20048;-31
2023/06/04 10:00:36;;;;;;;2.45;1.27;;;21.00;55.40;;;;;;5052880;28;20482;-33
2023/06/04 10:03:03;;;;;;;2.20;1.10;;;20.90;70.20;;;;;;5070996;28;20131;-31
2023/06/04 10:05:30;;;;;;;1.85;1.17;;;21.20;52.80;;;;;;5072774;28;20655;-31
2023/06/04 10:07:57;;;;;;;1.63;1.17;;;21.90;70.70;;;;;;5072023;28;20135;-31
2023/06/04 10:10:26;;;;;;;1.98;1.38;;;21.00;71.00;;;;;;5072593;28;20053;-31
2023/06/04 10:12:56;;;;;;;2.08;1.20;;;22.10;70.70;;;;;;5072590;28;20135;-31
2023/06/04 10:15:23;;;;;;;2.28;1.20;;;;;;;;;;5072482;28;20051;-34
2023/06/04 10:17:49;;;;;;;2.33;1.10;;;21.50;56.90;;;;;;5072147;28;20131;-34
2023/06/04 10:20:16;;;;;;;1.75;1.20;;;20.90;70.90;;;;;;5052388;28;20079;-32
2023/06/04 10:22:43;;;;;;;2.05;1.13;;;21.30;69.30;;;;;;5052291;28;20048;-32
2023/06/04 10:25:10;;;;;;;2.03;1.30;;;21.40;71.20;;;;;;5052482;28;20128;-31
2023/06/04 10:27:38;;;;;;;1.75;1.20;;;22.10;71.50;;;;;;5052736;28;20088;-32
2023/06/04 10:30:06;;;;;;;2.00;1.15;;;21.10;69.30;;;;;;5070653;28;20053;-32
2023/06/04 10:32:33;;;;;;;1.77;1.10;;;21.20;57.50;;;;;;5072460;28;20079;-32
2023/06/04 10:35:00;;;;;;;2.05;1.30;;;21.50;62.80;;;;;;5072230;28;20128;-32
2023/06/04 10:37:29;;;;;;;1.80;1.20;;;21.50;53.40;;;;;;5060468;28;20438;-34
2023/06/04 10:39:56;;;;;;;2.08;1.30;;;21.20;70.50;;;;;;5057143;28;20048;-31
2023/06/04 10:42:23;;;;;;;1.42;1.20;;;;;;;;;;5071853;28;20051;-36
2023/06/04 10:44:52;;;;;;;2.28;1.35;;;21.90;70.80;;;;;;5072248;28;20127;-31
2023/06/04 10:47:20;;;;;;;1.92;1.20;;;21.40;52.80;;;;;;5071649;28;20132;-36
2023/06/04 10:49:47;;;;;;;2.10;1.40;;;21.80;71.30;;;;;;5070704;28;20059;-31
2023/06/04 10:52:14;;;;;;;1.95;1.17;;;22.00;65.80;;;;;;5071675;28;20052;-32
2023/06/04 10:54:42;;;;;;;2.45;1.33;;;21.50;71.00;;;;;;5072153;28;20123;-32
2023/06/04 10:57:13;;;;;;;1.92;1.10;;;21.60;71.10;;;;;;5071728;28;20048;-32
2023/06/04 10:59:40;;;;;;;1.35;1.02;;;;;;;;;;5070994;28;20053;-36
2023/06/04 11:02:08;;;;;;;1.75;1.10;;;21.40;70.10;;;;;;5071793;28;20052;-32
2023/06/04 11:04:36;;;;;;;3.63;1.27;;;21.30;70.10;;;;;;5071714;28;20087;-32
2023/06/04 11:07:04;;;;;;;1.63;1.15;;;21.20;70.00;;;;;;5071923;28;20047;-32
2023/06/04 11:09:31;;;;;;;1.58;1.02;;;22.20;70.50;;;;;;5059170;28;20520;-33
2023/06/04 11:11:59;;;;;;;1.60;1.20;;;21.80;69.60;;;;;;5051687;28;20055;-32
2023/06/04 11:14:26;;;;;;;2.28;1.30;;;;;;;;;;5051707;28;20414;-32
2023/06/04 11:16:52;;;;;;;1.85;1.10;;;21.80;59.50;;;;;;5051483;28;20051;-35
2023/06/04 11:19:21;;;;;;;2.10;1.20;;;21.40;52.50;;;;;;5052283;28;20586;-32
2023/06/04 11:21:48;;;;;;;2.40;1.10;;;;;;;;;;5051787;28;20154;-32
2023/06/04 11:24:15;;;;;;;1.60;1.27;;;;;;;;;;5051654;28;20135;-34
2023/06/04 11:26:42;;;;;;;1.92;1.20;;;21.80;70.60;;;;;;5051529;28;20049;-33
2023/06/04 11:29:10;;;;;;;1.00;0.90;;;;;;;;;;5058537;28;20532;-35
2023/06/04 11:31:42;;;;;;;1.63;1.10;;;20.60;61.90;;;;;;5071292;28;20127;-32
2023/06/04 11:34:09;;;;;;;2.17;1.23;;;;;;;;;;5071331;28;20059;-37
2023/06/04 11:36:37;;;;;;;1.58;1.10;;;21.30;70.70;;;;;;5070653;28;20523;-33
2023/06/04 11:39:06;;;;;;;1.77;1.20;;;21.90;70.20;;;;;;5070926;28;20040;-40
2023/06/04 11:41:33;;;;;;;1.27;1.00;;;21.40;70.30;;;;;;5060769;28;20076;-40
2023/06/04 11:44:03;;;;;;;1.98;1.30;;;21.30;69.80;;;;;;5053814;28;20044;-41
2023/06/04 11:46:29;;;;;;;1.80;1.10;;;22.00;61.30;;;;;;5053120;28;20059;-38
2023/06/04 11:48:56;;;;;;;1.48;1.10;;;21.70;70.10;;;;;;5059890;28;20048;-41
2023/06/04 11:51:23;;;;;;;1.45;0.93;;;21.60;70.90;;;;;;5061074;28;20076;-39
2023/06/04 11:53:51;;;;;;;1.90;1.20;;;21.40;56.70;;;;;;5053186;28;20055;-41
2023/06/04 11:56:18;;;;;;;1.08;0.95;;;;;;;;;;5060053;28;20041;-39
2023/06/04 11:58:46;;;;;;;1.35;1.08;;;22.00;70.10;;;;;;5058618;28;20137;-31
2023/06/04 12:01:13;;;;;;;1.17;0.98;;;21.50;69.90;;;;;;5051473;28;20048;-31
2023/06/04 12:03:40;;;;;;;3.67;1.17;;;22.20;53.30;;;;;;5050829;28;20414;-34
2023/06/04 12:06:15;;;;;;;1.60;1.10;;;21.20;70.20;;;;;;5051576;28;20041;-31
2023/06/04 12:08:45;;;;;;;;;;;21.70;53.30;;;;;;5059274;28;20060;-34
2023/06/04 12:11:27;;;;;;;2.20;1.20;;;21.80;62.80;;;;;;5071359;28;20296;-32
2023/06/04 12:13:54;;;;;;;1.63;1.15;;;;;;;;;;5074960;28;20045;-36
2023/06/04 12:16:21;;;;;;;1.35;1.02;;;21.80;70.50;;;;;;5074369;28;20040;-33
2023/06/04 12:18:49;;;;;;;1.85;1.20;;;21.80;70.90;;;;;;5074733;28;20124;-32
2023/06/04 12:21:22;;;;;;;2.05;1.27;;;20.70;70.00;;;;;;5074716;28;20398;-31
2023/06/04 12:23:50;;;;;;;1.75;1.00;;;22.00;71.10;;;;;;5074547;28;20076;-32
2023/06/04 12:26:28;;;;;;;2.83;1.30;;;21.70;52.80;;;;;;5066208;28;20055;-35
2023/06/04 12:29:01;;;;;;;1.80;1.20;;;21.50;69.70;;;;;;5072068;28;20809;-32
2023/06/04 12:31:31;;;;;;;2.78;1.20;;;21.90;71.00;;;;;;5073665;28;20614;-32
2023/06/04 12:33:59;;;;;;;3.00;1.67;;;20.90;70.10;;;;;;5073948;28;20056;-32
2023/06/04 12:36:26;;;;;;;1.85;1.10;;;21.10;70.50;;;;;;5072446;28;20052;-32
2023/06/04 12:38:53;;;;;;;2.13;1.20;;;20.70;60.80;;;;;;5074586;28;20049;-33
2023/06/04 12:41:20;;;;;;;2.38;1.23;;;21.80;70.80;;;;;;5074459;28;20055;-32
2023/06/04 12:43:48;;;;;;;1.13;0.90;;;21.80;53.10;;;;;;5074025;28;20476;-35
2023/06/04 12:46:15;;;;;;;1.67;1.20;;;;;;;;;;5073687;28;20123;-37
2023/06/04 12:48:42;;;;;;;3.58;1.10;;;22.50;71.40;;;;;;5073925;28;20056;-32
2023/06/04 12:51:10;;;;;;;2.47;1.10;;;;;;;;;;5074489;28;20056;-35
2023/06/04 12:53:37;;;;;;;2.70;1.20;;;21.60;71.10;;;;;;5073467;28;20135;-32
2023/06/04 12:56:04;;;;;;;2.83;1.27;;;22.00;66.40;;;;;;5072990;28;20508;-34
2023/06/04 12:58:30;;;;;;;3.53;1.30;;;21.80;70.20;;;;;;5074076;28;20585;-32
2023/06/04 13:00:58;;;;;;;3.72;1.17;;;21.80;53.20;;;;;;5074085;28;20059;-36
2023/06/04 13:03:25;;;;;;;3.90;1.20;;;;;;;;;;5072832;28;20048;-35
2023/06/04 13:05:53;;;;;;;4.60;1.25;;;;;;;;;;5054152;28;20041;-33
2023/06/04 13:08:20;;;;;;;4.95;1.17;;;21.90;58.80;;;;;;5058210;28;20059;-33
2023/06/04 13:10:47;;;;;;;3.97;1.55;;;21.10;69.90;;;;;;5074017;28;20048;-33
2023/06/04 13:13:15;;;;;;;2.90;1.20;;;22.10;56.00;;;;;;5073822;28;20059;-32
2023/06/04 13:15:42;;;;;;;3.67;1.25;;;;;;;;;;5073528;28;20053;-34